Hartford, Connecticut
Traffic Map
Current Weather Conditions
Hartford, Connecticut
Clear
Clear
23°
Feels Like: 23°
Wind Chill: 23° Ceiling: Unl
Heat Index: 23° Visibility: 10mi
Dew Point: 13° Wind: 7mph
Humidity: 53% Direction: 30° (NNE)
Pressure: 30.14in Gusts: 0mph
Raw Report DataKHFD 300253Z 03006KT 10SM CLR 23/13 A3014 RMK AO2 SLP205 T02330133 51016
Traffic Incident Summary
Active as of:
Severity:
Category:
InformationThere was an issue retrieving the traffic information for this location. Please try a different location or try again shortly.
Advertisements
Track Severe Weather on mobile